sensor_id;sensor_type;location;lat;lon;timestamp;P1;durP1;ratioP1;P2;durP2;ratioP2
52342;SDS011;38277;51.972;4.624;2023-03-26T00:04:25;32.5;;;8.1;;
52342;SDS011;38277;51.972;4.624;2023-03-26T00:08:45;41.3;;;9.7;;
52342;SDS011;38277;51.972;4.624;2023-03-26T00:17:43;42.7;;;8.6;;
52342;SDS011;38277;51.972;4.624;2023-03-26T00:22:00;43.6;;;9.3;;
52342;SDS011;38277;51.972;4.624;2023-03-26T00:26:47;39.3;;;10.0;;
52342;SDS011;38277;51.972;4.624;2023-03-26T00:31:12;35.7;;;9.8;;
52342;SDS011;38277;51.972;4.624;2023-03-26T00:35:34;50.8;;;9.4;;
52342;SDS011;38277;51.972;4.624;2023-03-26T00:40:08;31.3;;;8.6;;
52342;SDS011;38277;51.972;4.624;2023-03-26T00:44:36;44.6;;;9.3;;
52342;SDS011;38277;51.972;4.624;2023-03-26T00:49:27;42.9;;;8.8;;
52342;SDS011;38277;51.972;4.624;2023-03-26T00:53:37;37.5;;;9.9;;
52342;SDS011;38277;51.972;4.624;2023-03-26T00:58:02;31.2;;;7.1;;
52342;SDS011;38277;51.972;4.624;2023-03-26T01:03:39;32.0;;;8.1;;
52342;SDS011;38277;51.972;4.624;2023-03-26T01:07:18;46.4;;;10.4;;
52342;SDS011;38277;51.972;4.624;2023-03-26T01:11:51;50.2;;;10.2;;
52342;SDS011;38277;51.972;4.624;2023-03-26T01:16:16;42.5;;;8.8;;
52342;SDS011;38277;51.972;4.624;2023-03-26T01:20:58;49.5;;;11.7;;
52342;SDS011;38277;51.972;4.624;2023-03-26T01:25:04;35.6;;;7.5;;
52342;SDS011;38277;51.972;4.624;2023-03-26T01:29:56;45.4;;;10.7;;
52342;SDS011;38277;51.972;4.624;2023-03-26T01:34:45;46.4;;;11.9;;
52342;SDS011;38277;51.972;4.624;2023-03-26T01:43:23;46.5;;;10.6;;
52342;SDS011;38277;51.972;4.624;2023-03-26T01:47:48;39.2;;;9.8;;
52342;SDS011;38277;51.972;4.624;2023-03-26T01:52:09;47.9;;;9.8;;
52342;SDS011;38277;51.972;4.624;2023-03-26T02:01:44;37.4;;;7.5;;
52342;SDS011;38277;51.972;4.624;2023-03-26T02:06:09;40.6;;;9.0;;
52342;SDS011;38277;51.972;4.624;2023-03-26T02:10:21;38.3;;;9.3;;
52342;SDS011;38277;51.972;4.624;2023-03-26T02:19:25;50.1;;;9.0;;
52342;SDS011;38277;51.972;4.624;2023-03-26T02:23:45;39.1;;;8.6;;
52342;SDS011;38277;51.972;4.624;2023-03-26T02:27:59;41.7;;;10.9;;
52342;SDS011;38277;51.972;4.624;2023-03-26T02:32:51;42.7;;;9.7;;
52342;SDS011;38277;51.972;4.624;2023-03-26T02:41:48;37.3;;;9.3;;
52342;SDS011;38277;51.972;4.624;2023-03-26T02:46:13;36.1;;;10.4;;
52342;SDS011;38277;51.972;4.624;2023-03-26T02:55:28;33.6;;;8.8;;
52342;SDS011;38277;51.972;4.624;2023-03-26T02:59:43;33.0;;;7.8;;
52342;SDS011;38277;51.972;4.624;2023-03-26T03:04:17;38.6;;;9.0;;
52342;SDS011;38277;51.972;4.624;2023-03-26T03:08:49;19.6;;;5.9;;
52342;SDS011;38277;51.972;4.624;2023-03-26T03:13:24;26.2;;;5.9;;
52342;SDS011;38277;51.972;4.624;2023-03-26T03:17:39;37.3;;;7.2;;
52342;SDS011;38277;51.972;4.624;2023-03-26T03:22:13;17.6;;;5.1;;
52342;SDS011;38277;51.972;4.624;2023-03-26T03:26:53;23.5;;;5.8;;
52342;SDS011;38277;51.972;4.624;2023-03-26T03:31:01;22.0;;;4.9;;
52342;SDS011;38277;51.972;4.624;2023-03-26T03:35:56;14.1;;;4.5;;
52342;SDS011;38277;51.972;4.624;2023-03-26T03:40:27;16.9;;;5.2;;
52342;SDS011;38277;51.972;4.624;2023-03-26T03:44:37;18.9;;;4.4;;
52342;SDS011;38277;51.972;4.624;2023-03-26T03:49:06;13.9;;;4.6;;
52342;SDS011;38277;51.972;4.624;2023-03-26T03:53:49;19.6;;;3.8;;
52342;SDS011;38277;51.972;4.624;2023-03-26T03:59:03;17.4;;;5.0;;
52342;SDS011;38277;51.972;4.624;2023-03-26T04:02:42;15.1;;;3.5;;
52342;SDS011;38277;51.972;4.624;2023-03-26T04:07:18;14.7;;;3.7;;
52342;SDS011;38277;51.972;4.624;2023-03-26T04:16:05;14.5;;;3.4;;
52342;SDS011;38277;51.972;4.624;2023-03-26T04:20:43;17.6;;;4.1;;
52342;SDS011;38277;51.972;4.624;2023-03-26T04:25:00;18.1;;;5.1;;
52342;SDS011;38277;51.972;4.624;2023-03-26T04:29:41;16.4;;;4.8;;
52342;SDS011;38277;51.972;4.624;2023-03-26T04:34:13;16.5;;;5.1;;
52342;SDS011;38277;51.972;4.624;2023-03-26T04:38:46;15.8;;;4.7;;
52342;SDS011;38277;51.972;4.624;2023-03-26T04:43:20;13.1;;;3.6;;
52342;SDS011;38277;51.972;4.624;2023-03-26T04:52:15;16.0;;;4.6;;
52342;SDS011;38277;51.972;4.624;2023-03-26T04:56:38;16.4;;;4.1;;
52342;SDS011;38277;51.972;4.624;2023-03-26T05:01:03;19.5;;;5.6;;
52342;SDS011;38277;51.972;4.624;2023-03-26T05:05:49;18.0;;;6.0;;
52342;SDS011;38277;51.972;4.624;2023-03-26T05:10:02;15.1;;;5.1;;
52342;SDS011;38277;51.972;4.624;2023-03-26T05:14:41;19.8;;;4.6;;
52342;SDS011;38277;51.972;4.624;2023-03-26T05:19:23;21.5;;;5.9;;
52342;SDS011;38277;51.972;4.624;2023-03-26T05:28:08;22.9;;;5.7;;
52342;SDS011;38277;51.972;4.624;2023-03-26T05:32:36;21.1;;;5.3;;
52342;SDS011;38277;51.972;4.624;2023-03-26T05:37:05;21.6;;;6.3;;
52342;SDS011;38277;51.972;4.624;2023-03-26T05:41:52;23.8;;;6.4;;
52342;SDS011;38277;51.972;4.624;2023-03-26T05:46:22;17.7;;;5.8;;
52342;SDS011;38277;51.972;4.624;2023-03-26T05:50:32;21.6;;;6.9;;
52342;SDS011;38277;51.972;4.624;2023-03-26T05:55:15;25.0;;;8.4;;
52342;SDS011;38277;51.972;4.624;2023-03-26T06:04:16;19.6;;;5.5;;
52342;SDS011;38277;51.972;4.624;2023-03-26T06:08:35;23.2;;;6.7;;
52342;SDS011;38277;51.972;4.624;2023-03-26T06:13:04;20.8;;;6.1;;
52342;SDS011;38277;51.972;4.624;2023-03-26T06:17:51;26.4;;;6.7;;
52342;SDS011;38277;51.972;4.624;2023-03-26T06:22:21;19.1;;;6.8;;
52342;SDS011;38277;51.972;4.624;2023-03-26T06:27:28;18.9;;;6.7;;
52342;SDS011;38277;51.972;4.624;2023-03-26T06:31:24;20.8;;;7.5;;
52342;SDS011;38277;51.972;4.624;2023-03-26T06:35:36;18.3;;;6.1;;
52342;SDS011;38277;51.972;4.624;2023-03-26T06:40:01;21.8;;;6.5;;
52342;SDS011;38277;51.972;4.624;2023-03-26T06:45:31;16.6;;;5.6;;
52342;SDS011;38277;51.972;4.624;2023-03-26T06:49:20;17.5;;;4.7;;
52342;SDS011;38277;51.972;4.624;2023-03-26T06:53:46;19.1;;;5.6;;
52342;SDS011;38277;51.972;4.624;2023-03-26T06:58:20;20.8;;;6.6;;
52342;SDS011;38277;51.972;4.624;2023-03-26T07:03:32;15.3;;;5.0;;
52342;SDS011;38277;51.972;4.624;2023-03-26T07:07:20;17.8;;;5.9;;
52342;SDS011;38277;51.972;4.624;2023-03-26T07:11:29;16.0;;;4.6;;
52342;SDS011;38277;51.972;4.624;2023-03-26T07:16:12;20.9;;;5.7;;
52342;SDS011;38277;51.972;4.624;2023-03-26T07:21:18;17.8;;;4.7;;
52342;SDS011;38277;51.972;4.624;2023-03-26T07:25:17;16.1;;;4.6;;
52342;SDS011;38277;51.972;4.624;2023-03-26T07:30:10;15.7;;;5.1;;
52342;SDS011;38277;51.972;4.624;2023-03-26T07:34:04;13.4;;;4.1;;
52342;SDS011;38277;51.972;4.624;2023-03-26T07:39:45;19.2;;;4.6;;
52342;SDS011;38277;51.972;4.624;2023-03-26T07:44:00;17.1;;;5.1;;
52342;SDS011;38277;51.972;4.624;2023-03-26T07:47:41;17.9;;;5.9;;
52342;SDS011;38277;51.972;4.624;2023-03-26T07:52:26;17.3;;;5.5;;
52342;SDS011;38277;51.972;4.624;2023-03-26T07:57:03;18.0;;;6.3;;
52342;SDS011;38277;51.972;4.624;2023-03-26T08:05:34;25.4;;;6.8;;
52342;SDS011;38277;51.972;4.624;2023-03-26T08:10:21;19.7;;;5.4;;
52342;SDS011;38277;51.972;4.624;2023-03-26T08:15:21;14.0;;;4.9;;
52342;SDS011;38277;51.972;4.624;2023-03-26T08:19:49;15.0;;;5.4;;
52342;SDS011;38277;51.972;4.624;2023-03-26T08:23:57;17.8;;;4.8;;
52342;SDS011;38277;51.972;4.624;2023-03-26T08:28:19;12.5;;;4.3;;
52342;SDS011;38277;51.972;4.624;2023-03-26T08:32:34;17.7;;;5.6;;
52342;SDS011;38277;51.972;4.624;2023-03-26T08:43:07;15.9;;;4.5;;
52342;SDS011;38277;51.972;4.624;2023-03-26T08:50:09;18.5;;;4.9;;
52342;SDS011;38277;51.972;4.624;2023-03-26T08:55:55;19.4;;;5.2;;
52342;SDS011;38277;51.972;4.624;2023-03-26T09:02:09;22.9;;;5.7;;
52342;SDS011;38277;51.972;4.624;2023-03-26T09:09:42;13.2;;;4.9;;
52342;SDS011;38277;51.972;4.624;2023-03-26T09:16:34;17.2;;;6.0;;
52342;SDS011;38277;51.972;4.624;2023-03-26T09:24:19;20.3;;;6.1;;
52342;SDS011;38277;51.972;4.624;2023-03-26T09:35:53;15.9;;;6.2;;
52342;SDS011;38277;51.972;4.624;2023-03-26T09:40:03;14.1;;;4.7;;
52342;SDS011;38277;51.972;4.624;2023-03-26T09:45:14;15.3;;;6.6;;
52342;SDS011;38277;51.972;4.624;2023-03-26T09:50:34;17.2;;;5.6;;
52342;SDS011;38277;51.972;4.624;2023-03-26T09:56:12;16.1;;;5.5;;
52342;SDS011;38277;51.972;4.624;2023-03-26T10:00:43;12.0;;;5.1;;
52342;SDS011;38277;51.972;4.624;2023-03-26T10:05:51;15.4;;;4.3;;
52342;SDS011;38277;51.972;4.624;2023-03-26T10:10:15;14.4;;;4.2;;
52342;SDS011;38277;51.972;4.624;2023-03-26T10:15:20;13.5;;;4.6;;
52342;SDS011;38277;51.972;4.624;2023-03-26T10:20:00;16.5;;;4.4;;
52342;SDS011;38277;51.972;4.624;2023-03-26T10:25:38;15.6;;;5.3;;
52342;SDS011;38277;51.972;4.624;2023-03-26T10:31:34;10.6;;;4.4;;
52342;SDS011;38277;51.972;4.624;2023-03-26T10:40:43;12.5;;;5.3;;
52342;SDS011;38277;51.972;4.624;2023-03-26T10:46:40;10.9;;;4.3;;
52342;SDS011;38277;51.972;4.624;2023-03-26T10:51:48;11.8;;;5.2;;
52342;SDS011;38277;51.972;4.624;2023-03-26T10:55:15;11.9;;;4.9;;
52342;SDS011;38277;51.972;4.624;2023-03-26T10:57:46;13.6;;;5.6;;
52342;SDS011;38277;51.972;4.624;2023-03-26T10:58:34;17.3;;;6.3;;
52342;SDS011;38277;51.972;4.624;2023-03-26T10:58:42;17.5;;;6.7;;
52342;SDS011;38277;51.972;4.624;2023-03-26T10:59:19;16.9;;;6.4;;
52342;SDS011;38277;51.972;4.624;2023-03-26T10:59:31;12.9;;;6.0;;
52342;SDS011;38277;51.972;4.624;2023-03-26T11:01:31;14.0;;;6.7;;
52342;SDS011;38277;51.972;4.624;2023-03-26T11:06:29;15.1;;;4.9;;
52342;SDS011;38277;51.972;4.624;2023-03-26T11:10:18;14.6;;;4.7;;
52342;SDS011;38277;51.972;4.624;2023-03-26T11:14:44;14.2;;;4.3;;
52342;SDS011;38277;51.972;4.624;2023-03-26T11:19:08;15.1;;;4.1;;
52342;SDS011;38277;51.972;4.624;2023-03-26T11:29:00;17.5;;;4.4;;
52342;SDS011;38277;51.972;4.624;2023-03-26T11:33:08;19.0;;;4.2;;
52342;SDS011;38277;51.972;4.624;2023-03-26T11:37:37;17.4;;;4.6;;
52342;SDS011;38277;51.972;4.624;2023-03-26T11:41:36;19.9;;;4.5;;
52342;SDS011;38277;51.972;4.624;2023-03-26T11:46:28;14.8;;;3.6;;
52342;SDS011;38277;51.972;4.624;2023-03-26T11:50:48;17.2;;;6.1;;
52342;SDS011;38277;51.972;4.624;2023-03-26T11:56:11;19.4;;;4.2;;
52342;SDS011;38277;51.972;4.624;2023-03-26T11:59:50;22.8;;;4.6;;
52342;SDS011;38277;51.972;4.624;2023-03-26T12:04:03;17.0;;;4.9;;
52342;SDS011;38277;51.972;4.624;2023-03-26T12:08:38;20.8;;;4.9;;
52342;SDS011;38277;51.972;4.624;2023-03-26T12:13:34;17.9;;;3.9;;
52342;SDS011;38277;51.972;4.624;2023-03-26T12:17:49;19.2;;;4.6;;
52342;SDS011;38277;51.972;4.624;2023-03-26T12:22:25;13.6;;;3.3;;
52342;SDS011;38277;51.972;4.624;2023-03-26T12:26:43;18.5;;;4.1;;
52342;SDS011;38277;51.972;4.624;2023-03-26T12:31:27;14.7;;;3.4;;
52342;SDS011;38277;51.972;4.624;2023-03-26T12:36:20;18.2;;;5.1;;
52342;SDS011;38277;51.972;4.624;2023-03-26T12:40:28;14.6;;;4.0;;
52342;SDS011;38277;51.972;4.624;2023-03-26T12:44:55;17.9;;;4.1;;
52342;SDS011;38277;51.972;4.624;2023-03-26T12:49:19;12.9;;;3.0;;
52342;SDS011;38277;51.972;4.624;2023-03-26T12:54:20;14.6;;;3.8;;
52342;SDS011;38277;51.972;4.624;2023-03-26T12:58:22;24.5;;;6.0;;
52342;SDS011;38277;51.972;4.624;2023-03-26T13:04:25;16.1;;;3.5;;
52342;SDS011;38277;51.972;4.624;2023-03-26T13:09:32;19.2;;;4.3;;
52342;SDS011;38277;51.972;4.624;2023-03-26T13:13:20;17.9;;;4.5;;
52342;SDS011;38277;51.972;4.624;2023-03-26T13:18:20;23.8;;;4.8;;
52342;SDS011;38277;51.972;4.624;2023-03-26T13:22:27;13.4;;;3.4;;
52342;SDS011;38277;51.972;4.624;2023-03-26T13:27:46;13.6;;;4.0;;
52342;SDS011;38277;51.972;4.624;2023-03-26T13:32:22;15.0;;;3.5;;
52342;SDS011;38277;51.972;4.624;2023-03-26T13:46:50;15.0;;;2.9;;
52342;SDS011;38277;51.972;4.624;2023-03-26T13:49:31;13.6;;;2.9;;
52342;SDS011;38277;51.972;4.624;2023-03-26T13:53:08;15.0;;;3.3;;
52342;SDS011;38277;51.972;4.624;2023-03-26T13:56:46;13.5;;;3.2;;
52342;SDS011;38277;51.972;4.624;2023-03-26T14:01:07;10.3;;;2.8;;
52342;SDS011;38277;51.972;4.624;2023-03-26T14:05:51;11.5;;;3.2;;
52342;SDS011;38277;51.972;4.624;2023-03-26T14:10:11;13.4;;;3.5;;
52342;SDS011;38277;51.972;4.624;2023-03-26T14:20:25;13.0;;;2.7;;
52342;SDS011;38277;51.972;4.624;2023-03-26T14:26:04;14.4;;;2.8;;
52342;SDS011;38277;51.972;4.624;2023-03-26T14:32:15;9.8;;;2.3;;
52342;SDS011;38277;51.972;4.624;2023-03-26T14:37:15;10.0;;;2.5;;
52342;SDS011;38277;51.972;4.624;2023-03-26T14:42:00;12.4;;;2.8;;
52342;SDS011;38277;51.972;4.624;2023-03-26T14:47:16;10.5;;;2.6;;
52342;SDS011;38277;51.972;4.624;2023-03-26T14:51:08;8.1;;;2.6;;
52342;SDS011;38277;51.972;4.624;2023-03-26T14:58:23;7.6;;;2.1;;
52342;SDS011;38277;51.972;4.624;2023-03-26T15:07:11;7.8;;;1.8;;
52342;SDS011;38277;51.972;4.624;2023-03-26T15:12:53;11.7;;;2.3;;
52342;SDS011;38277;51.972;4.624;2023-03-26T15:20:21;10.0;;;2.5;;
52342;SDS011;38277;51.972;4.624;2023-03-26T15:28:20;10.6;;;3.3;;
52342;SDS011;38277;51.972;4.624;2023-03-26T15:34:28;14.6;;;2.6;;
52342;SDS011;38277;51.972;4.624;2023-03-26T15:40:47;9.5;;;2.4;;
52342;SDS011;38277;51.972;4.624;2023-03-26T15:48:48;7.6;;;2.0;;
52342;SDS011;38277;51.972;4.624;2023-03-26T15:53:31;9.0;;;2.9;;
52342;SDS011;38277;51.972;4.624;2023-03-26T15:57:58;10.2;;;3.0;;
52342;SDS011;38277;51.972;4.624;2023-03-26T16:01:44;13.1;;;3.0;;
52342;SDS011;38277;51.972;4.624;2023-03-26T16:06:51;11.8;;;2.4;;
52342;SDS011;38277;51.972;4.624;2023-03-26T16:11:00;12.6;;;2.8;;
52342;SDS011;38277;51.972;4.624;2023-03-26T16:12:30;9.7;;;2.5;;
52342;SDS011;38277;51.972;4.624;2023-03-26T16:16:22;9.6;;;2.4;;
52342;SDS011;38277;51.972;4.624;2023-03-26T16:18:35;9.7;;;2.3;;
52342;SDS011;38277;51.972;4.624;2023-03-26T16:21:04;9.6;;;2.7;;
52342;SDS011;38277;51.972;4.624;2023-03-26T16:27:32;10.9;;;3.0;;
52342;SDS011;38277;51.972;4.624;2023-03-26T16:30:13;13.6;;;2.4;;
52342;SDS011;38277;51.972;4.624;2023-03-26T16:34:37;7.0;;;1.9;;
52342;SDS011;38277;51.972;4.624;2023-03-26T16:43:43;11.9;;;2.6;;
52342;SDS011;38277;51.972;4.624;2023-03-26T16:48:05;9.7;;;2.7;;
52342;SDS011;38277;51.972;4.624;2023-03-26T16:52:52;12.5;;;2.7;;
52342;SDS011;38277;51.972;4.624;2023-03-26T17:01:55;9.9;;;2.1;;
52342;SDS011;38277;51.972;4.624;2023-03-26T17:05:48;4.3;;;1.7;;
52342;SDS011;38277;51.972;4.624;2023-03-26T17:10:34;9.2;;;2.5;;
52342;SDS011;38277;51.972;4.624;2023-03-26T17:19:34;7.8;;;2.3;;
52342;SDS011;38277;51.972;4.624;2023-03-26T17:23:49;11.6;;;2.5;;
52342;SDS011;38277;51.972;4.624;2023-03-26T17:28:17;7.7;;;2.2;;
52342;SDS011;38277;51.972;4.624;2023-03-26T17:33:21;8.7;;;2.0;;
52342;SDS011;38277;51.972;4.624;2023-03-26T17:37:27;8.6;;;2.2;;
52342;SDS011;38277;51.972;4.624;2023-03-26T17:42:15;8.1;;;2.6;;
52342;SDS011;38277;51.972;4.624;2023-03-26T17:46:04;7.3;;;2.4;;
52342;SDS011;38277;51.972;4.624;2023-03-26T17:51:00;8.7;;;2.1;;
52342;SDS011;38277;51.972;4.624;2023-03-26T17:55:14;9.4;;;2.5;;
52342;SDS011;38277;51.972;4.624;2023-03-26T17:59:45;6.9;;;1.7;;
52342;SDS011;38277;51.972;4.624;2023-03-26T18:04:10;9.0;;;2.6;;
52342;SDS011;38277;51.972;4.624;2023-03-26T18:09:35;8.1;;;2.4;;
52342;SDS011;38277;51.972;4.624;2023-03-26T18:15:58;9.0;;;2.3;;
52342;SDS011;38277;51.972;4.624;2023-03-26T18:17:44;7.4;;;2.2;;
52342;SDS011;38277;51.972;4.624;2023-03-26T18:22:20;7.9;;;2.5;;
52342;SDS011;38277;51.972;4.624;2023-03-26T18:27:01;9.8;;;2.9;;
52342;SDS011;38277;51.972;4.624;2023-03-26T18:31:23;9.0;;;2.9;;
52342;SDS011;38277;51.972;4.624;2023-03-26T18:40:22;8.7;;;3.1;;
52342;SDS011;38277;51.972;4.624;2023-03-26T18:44:37;9.1;;;3.3;;
52342;SDS011;38277;51.972;4.624;2023-03-26T18:49:28;10.5;;;2.2;;
52342;SDS011;38277;51.972;4.624;2023-03-26T18:53:56;7.3;;;2.1;;
52342;SDS011;38277;51.972;4.624;2023-03-26T18:58:22;5.5;;;2.1;;
52342;SDS011;38277;51.972;4.624;2023-03-26T19:02:30;10.8;;;3.5;;
52342;SDS011;38277;51.972;4.624;2023-03-26T19:07:14;13.5;;;2.5;;
52342;SDS011;38277;51.972;4.624;2023-03-26T19:16:00;9.5;;;2.6;;
52342;SDS011;38277;51.972;4.624;2023-03-26T19:20:48;8.2;;;2.1;;
52342;SDS011;38277;51.972;4.624;2023-03-26T19:25:21;12.0;;;2.9;;
52342;SDS011;38277;51.972;4.624;2023-03-26T19:29:37;9.2;;;2.5;;
52342;SDS011;38277;51.972;4.624;2023-03-26T19:34:31;9.8;;;2.5;;
52342;SDS011;38277;51.972;4.624;2023-03-26T19:38:48;10.7;;;3.3;;
52342;SDS011;38277;51.972;4.624;2023-03-26T19:43:12;12.1;;;2.4;;
52342;SDS011;38277;51.972;4.624;2023-03-26T19:52:02;9.6;;;2.1;;
52342;SDS011;38277;51.972;4.624;2023-03-26T19:56:31;7.5;;;2.4;;
52342;SDS011;38277;51.972;4.624;2023-03-26T20:01:08;8.3;;;2.4;;
52342;SDS011;38277;51.972;4.624;2023-03-26T20:05:43;7.9;;;2.4;;
52342;SDS011;38277;51.972;4.624;2023-03-26T20:10:01;7.8;;;2.3;;
52342;SDS011;38277;51.972;4.624;2023-03-26T20:14:32;9.3;;;2.9;;
52342;SDS011;38277;51.972;4.624;2023-03-26T20:19:17;12.8;;;3.9;;
52342;SDS011;38277;51.972;4.624;2023-03-26T20:28:17;11.7;;;3.3;;
52342;SDS011;38277;51.972;4.624;2023-03-26T20:32:48;8.6;;;2.9;;
52342;SDS011;38277;51.972;4.624;2023-03-26T20:37:12;9.1;;;2.3;;
52342;SDS011;38277;51.972;4.624;2023-03-26T20:41:56;9.8;;;2.6;;
52342;SDS011;38277;51.972;4.624;2023-03-26T20:46:13;10.4;;;3.9;;
52342;SDS011;38277;51.972;4.624;2023-03-26T20:50:36;6.4;;;2.1;;
52342;SDS011;38277;51.972;4.624;2023-03-26T20:55:02;5.9;;;2.3;;
52342;SDS011;38277;51.972;4.624;2023-03-26T21:04:18;10.4;;;2.1;;
52342;SDS011;38277;51.972;4.624;2023-03-26T21:08:50;13.1;;;3.4;;
52342;SDS011;38277;51.972;4.624;2023-03-26T21:13:31;7.3;;;2.2;;
52342;SDS011;38277;51.972;4.624;2023-03-26T21:22:11;4.8;;;1.7;;
52342;SDS011;38277;51.972;4.624;2023-03-26T21:26:47;8.5;;;1.9;;
52342;SDS011;38277;51.972;4.624;2023-03-26T21:30:59;7.6;;;2.4;;
52342;SDS011;38277;51.972;4.624;2023-03-26T21:40:00;7.6;;;2.1;;
52342;SDS011;38277;51.972;4.624;2023-03-26T21:44:46;9.0;;;2.2;;
52342;SDS011;38277;51.972;4.624;2023-03-26T21:49:21;10.5;;;2.3;;
52342;SDS011;38277;51.972;4.624;2023-03-26T21:59:06;8.9;;;1.9;;
52342;SDS011;38277;51.972;4.624;2023-03-26T22:03:05;8.5;;;2.0;;
52342;SDS011;38277;51.972;4.624;2023-03-26T22:07:18;5.1;;;1.7;;
52342;SDS011;38277;51.972;4.624;2023-03-26T22:16:13;6.5;;;1.7;;
52342;SDS011;38277;51.972;4.624;2023-03-26T22:20:52;5.2;;;1.3;;
52342;SDS011;38277;51.972;4.624;2023-03-26T22:25:24;5.1;;;1.6;;
52342;SDS011;38277;51.972;4.624;2023-03-26T22:29:48;4.7;;;1.6;;
52342;SDS011;38277;51.972;4.624;2023-03-26T22:34:20;6.2;;;1.6;;
52342;SDS011;38277;51.972;4.624;2023-03-26T22:38:56;7.2;;;1.7;;
52342;SDS011;38277;51.972;4.624;2023-03-26T22:44:11;9.6;;;2.5;;
52342;SDS011;38277;51.972;4.624;2023-03-26T22:47:37;7.9;;;1.6;;
52342;SDS011;38277;51.972;4.624;2023-03-26T22:52:10;6.0;;;1.9;;
52342;SDS011;38277;51.972;4.624;2023-03-26T22:56:52;8.0;;;1.7;;
52342;SDS011;38277;51.972;4.624;2023-03-26T23:01:26;7.2;;;1.6;;
52342;SDS011;38277;51.972;4.624;2023-03-26T23:05:56;7.4;;;1.8;;
52342;SDS011;38277;51.972;4.624;2023-03-26T23:10:22;3.8;;;1.2;;
52342;SDS011;38277;51.972;4.624;2023-03-26T23:14:44;5.4;;;1.6;;
52342;SDS011;38277;51.972;4.624;2023-03-26T23:19:28;3.5;;;1.3;;
52342;SDS011;38277;51.972;4.624;2023-03-26T23:23:50;3.7;;;1.1;;
52342;SDS011;38277;51.972;4.624;2023-03-26T23:28:17;1.1;;;1.0;;
52342;SDS011;38277;51.972;4.624;2023-03-26T23:32:45;3.0;;;1.2;;
52342;SDS011;38277;51.972;4.624;2023-03-26T23:37:17;3.6;;;1.3;;
52342;SDS011;38277;51.972;4.624;2023-03-26T23:41:57;3.3;;;1.3;;
52342;SDS011;38277;51.972;4.624;2023-03-26T23:46:01;2.8;;;1.2;;
52342;SDS011;38277;51.972;4.624;2023-03-26T23:50:41;3.3;;;1.2;;
52342;SDS011;38277;51.972;4.624;2023-03-26T23:55:00;3.5;;;1.4;;
52342;SDS011;38277;51.972;4.624;2023-03-26T23:59:46;4.8;;;1.3;;
